YPPH/PER METAR and TAF weather

Enter ICAO airport designator
Station Type Date Time Source
YPPH METAR 2022/10/01 06:30 UTC NOAA

YPPH 010630Z 20015KT CAVOK 26/06 Q1013


Station Type Date Time Source
YPPH Decoded METAR 2022/10/01 06:30 UTC NOAA

Belmont Perth Airport , Australia (YPPH) 31-56S 115-57E 29M
Oct 01, 2022 - 02:30 AM EDT / 2022.10.01 0630 UTC
Wind: from the SSW (200 degrees) at 17 MPH (15 KT):0
Visibility: greater than 7 mile(s):0
Temperature: 78 F (26 C)
Dew Point: 42 F (6 C)
Relative Humidity: 27%
Pressure (altimeter): 29.91 in. Hg (1013 hPa)
ob: YPPH 010630Z 20015KT CAVOK 26/06 Q1013
cycle: 6

Station Type Date Time Source
YPPH TAF 2022/10/01 06:18 UTC NOAA

TAF TAF
AMD YPPH 010515Z 0106/0212 19009KT CAVOK
FM010900 15012KT CAVOK
FM011400 11016G26KT CAVOK
FM020100 10014KT 9999 BKN045
FM020400 10014KT 9999 -SHRA BKN050
FM020900 12012KT CAVOK

Example: see airport list